createdAt,value
2022-11-28T00:03:08.115Z,6.02
2022-11-28T00:08:09.908Z,6.09
2022-11-28T00:13:15.602Z,6.07
2022-11-28T00:18:17.301Z,6.04
2022-11-28T00:23:18.993Z,6.13
2022-11-28T00:28:20.563Z,6.12
2022-11-28T00:33:22.584Z,6.14
2022-11-28T00:38:24.318Z,6.30
2022-11-28T00:43:26.063Z,6.25
2022-11-28T00:48:27.973Z,6.26
2022-11-28T00:53:29.674Z,6.19
2022-11-28T00:58:32.802Z,6.15
2022-11-28T01:03:35.756Z,6.19
2022-11-28T01:08:38.204Z,6.19
2022-11-28T01:13:40.665Z,6.17
2022-11-28T01:18:42.501Z,6.19
2022-11-28T01:23:44.484Z,6.22
2022-11-28T01:28:46.997Z,6.30
2022-11-28T01:33:49.413Z,6.21
2022-11-28T01:38:51.591Z,6.25
2022-11-28T01:44:02.478Z,6.28
2022-11-28T01:49:19.042Z,6.33
2022-11-28T01:54:24.210Z,6.33
2022-11-28T01:59:30.546Z,6.34
2022-11-28T02:04:34.320Z,6.33
2022-11-28T02:09:35.922Z,6.37
2022-11-28T02:14:49.189Z,6.40
2022-11-28T02:20:27.903Z,6.40
2022-11-28T02:26:05.719Z,6.48
2022-11-28T02:32:01.687Z,6.45
2022-11-28T02:37:21.017Z,6.46
2022-11-28T02:42:39.291Z,6.52
2022-11-28T02:47:48.876Z,6.52
2022-11-28T02:52:56.181Z,6.54
2022-11-28T02:57:58.059Z,6.59
2022-11-28T03:03:30.413Z,6.62
2022-11-28T03:08:40.675Z,6.66
2022-11-28T03:13:42.298Z,6.69
2022-11-28T03:19:19.193Z,6.72
2022-11-28T03:24:44.306Z,6.75
2022-11-28T03:29:51.174Z,6.80
2022-11-28T03:34:59.568Z,6.84
2022-11-28T03:40:10.630Z,6.84
2022-11-28T03:45:16.609Z,6.91
2022-11-28T03:50:24.795Z,6.91
2022-11-28T03:56:17.098Z,6.97
2022-11-28T04:01:29.750Z,6.98
2022-11-28T04:06:50.521Z,7.00
2022-11-28T04:11:56.491Z,7.02
2022-11-28T04:17:22.939Z,7.07
2022-11-28T04:22:38.542Z,7.11
2022-11-28T04:27:53.329Z,7.08
2022-11-28T04:33:01.817Z,7.16
2022-11-28T04:38:05.876Z,7.20
2022-11-28T04:43:18.989Z,7.20
2022-11-28T04:48:20.806Z,7.23
2022-11-28T04:53:44.038Z,7.26
2022-11-28T04:58:48.667Z,7.28
2022-11-28T05:03:50.900Z,7.33
2022-11-28T05:08:52.639Z,7.35
2022-11-28T05:13:55.406Z,7.36
2022-11-28T05:18:57.096Z,7.41
2022-11-28T05:23:58.716Z,7.44
2022-11-28T05:29:00.345Z,7.45
2022-11-28T05:34:01.921Z,7.48
2022-11-28T05:39:04.089Z,7.50
2022-11-28T05:44:05.718Z,7.50
2022-11-28T05:49:07.297Z,7.53
2022-11-28T05:54:09.181Z,7.55
2022-11-28T05:59:10.758Z,7.57
2022-11-28T06:04:12.417Z,7.59
2022-11-28T06:09:14.083Z,7.63
2022-11-28T06:14:15.675Z,7.63
2022-11-28T06:19:17.316Z,7.63
2022-11-28T06:24:19.123Z,7.68
2022-11-28T06:29:21.126Z,7.69
2022-11-28T06:34:23.897Z,7.68
2022-11-28T06:39:25.647Z,7.67
2022-11-28T06:44:27.312Z,7.67
2022-11-28T06:49:29.050Z,7.70
2022-11-28T06:54:30.698Z,7.63
2022-11-28T06:59:32.456Z,7.66
2022-11-28T07:04:34.110Z,7.64
2022-11-28T07:09:35.694Z,7.63
2022-11-28T07:14:37.362Z,7.63
2022-11-28T07:19:39.190Z,7.64
2022-11-28T07:24:40.950Z,7.66
2022-11-28T07:29:42.949Z,7.66
2022-11-28T07:34:49.888Z,7.74
2022-11-28T07:39:52.279Z,7.69
2022-11-28T07:44:53.998Z,7.67
2022-11-28T07:49:55.874Z,7.69
2022-11-28T07:54:57.478Z,7.67
2022-11-28T07:59:59.115Z,7.70
2022-11-28T08:05:01.190Z,7.70
2022-11-28T08:10:06.240Z,7.73
2022-11-28T08:15:08.309Z,7.77
2022-11-28T08:20:10.316Z,7.76
2022-11-28T08:25:11.995Z,7.76
2022-11-28T08:30:14.126Z,7.76
2022-11-28T08:35:15.957Z,7.78
2022-11-28T08:40:17.699Z,7.81
2022-11-28T08:45:19.426Z,7.85
2022-11-28T08:50:21.015Z,7.82
2022-11-28T08:55:31.750Z,7.82
2022-11-28T09:00:34.151Z,7.85
2022-11-28T09:05:35.810Z,7.89
2022-11-28T09:10:38.765Z,7.94
2022-11-28T09:15:46.264Z,7.93
2022-11-28T09:20:49.127Z,7.95
2022-11-28T09:25:50.801Z,7.98
2022-11-28T09:31:00.115Z,8.02
2022-11-28T09:36:09.918Z,8.07
2022-11-28T09:41:17.582Z,8.10
2022-11-28T09:46:28.042Z,8.08
2022-11-28T09:51:52.607Z,8.19
2022-11-28T09:56:54.539Z,8.22
2022-11-28T10:02:17.877Z,8.26
2022-11-28T10:07:26.851Z,8.28
2022-11-28T10:12:56.233Z,8.38
2022-11-28T10:18:28.746Z,8.38
2022-11-28T10:23:38.273Z,8.46
2022-11-28T10:28:43.978Z,8.44
2022-11-28T10:33:55.063Z,8.48
2022-11-28T10:38:57.532Z,8.52
2022-11-28T10:44:27.776Z,8.55
2022-11-28T10:49:29.478Z,8.63
2022-11-28T10:54:49.410Z,8.66
2022-11-28T10:59:59.875Z,8.65
2022-11-28T11:05:01.719Z,8.70
2022-11-28T11:10:15.245Z,8.72
2022-11-28T11:15:19.231Z,8.74
2022-11-28T11:20:21.024Z,8.80
2022-11-28T11:25:25.451Z,8.85
2022-11-28T11:30:38.914Z,8.87
2022-11-28T11:35:47.125Z,8.98
2022-11-28T11:40:52.555Z,9.08
2022-11-28T11:46:15.028Z,9.01
2022-11-28T11:51:24.708Z,9.07
2022-11-28T11:56:28.589Z,9.09
2022-11-28T12:01:32.097Z,9.14
2022-11-28T12:06:47.083Z,9.13
2022-11-28T12:12:01.941Z,9.19
2022-11-28T12:22:47.899Z,9.21
2022-11-28T12:27:52.394Z,9.27
2022-11-28T12:33:12.760Z,9.29
2022-11-28T12:38:37.667Z,9.36
2022-11-28T12:44:08.862Z,9.42
2022-11-28T12:49:43.055Z,9.45
2022-11-28T12:54:50.940Z,9.46
2022-11-28T13:00:08.369Z,9.45
2022-11-28T13:05:19.458Z,9.45
2022-11-28T13:10:28.755Z,9.49
2022-11-28T13:15:51.565Z,9.48
2022-11-28T13:20:58.814Z,9.49
2022-11-28T13:26:11.334Z,9.51
2022-11-28T13:31:24.507Z,9.55
2022-11-28T13:42:52.310Z,9.54
2022-11-28T13:47:38.422Z,9.53
2022-11-28T13:52:43.524Z,9.55
2022-11-28T13:57:45.869Z,9.55
2022-11-28T14:02:58.996Z,9.57
2022-11-28T14:08:02.373Z,9.53
2022-11-28T14:13:13.015Z,9.53
2022-11-28T14:18:58.837Z,9.48
2022-11-28T14:24:14.202Z,9.47
2022-11-28T14:29:23.004Z,9.46
2022-11-28T14:34:43.064Z,9.46
2022-11-28T14:39:56.048Z,9.39
2022-11-28T14:45:08.157Z,9.40
2022-11-28T14:50:13.618Z,9.41
2022-11-28T14:55:21.702Z,9.38
2022-11-28T15:00:32.463Z,9.31
2022-11-28T15:05:45.372Z,9.31
2022-11-28T15:10:57.474Z,9.30
2022-11-28T15:16:00.476Z,9.34
2022-11-28T15:21:07.283Z,9.38
2022-11-28T15:26:21.740Z,9.39
2022-11-28T15:31:23.776Z,9.37
2022-11-28T15:36:29.930Z,9.37
2022-11-28T15:41:33.579Z,9.33
2022-11-28T15:46:35.450Z,9.31
2022-11-28T15:51:37.406Z,9.27
2022-11-28T15:56:39.279Z,9.25
2022-11-28T16:01:41.306Z,9.18
2022-11-28T16:06:50.003Z,9.15
2022-11-28T16:11:54.044Z,9.15
2022-11-28T16:16:58.102Z,9.10
2022-11-28T16:22:06.806Z,9.08
2022-11-28T16:27:24.261Z,9.07
2022-11-28T16:32:38.013Z,9.02
2022-11-28T16:37:39.886Z,9.00
2022-11-28T16:42:42.069Z,8.99
2022-11-28T16:47:45.672Z,8.98
2022-11-28T16:53:00.530Z,8.94
2022-11-28T16:58:07.434Z,8.93
2022-11-28T17:03:40.499Z,8.91
2022-11-28T17:08:42.242Z,8.90
2022-11-28T17:13:44.041Z,8.90
2022-11-28T17:18:46.605Z,8.89
2022-11-28T17:23:48.248Z,8.88
2022-11-28T17:28:49.954Z,8.88
2022-11-28T17:33:51.659Z,8.84
2022-11-28T17:38:53.404Z,8.81
2022-11-28T17:43:55.100Z,8.80
2022-11-28T17:48:59.134Z,8.79
2022-11-28T17:54:00.859Z,8.78
2022-11-28T17:59:02.555Z,8.78
2022-11-28T18:04:04.738Z,8.77
2022-11-28T18:09:11.693Z,8.76
2022-11-28T18:14:19.207Z,8.72
2022-11-28T18:19:21.365Z,8.74
2022-11-28T18:24:23.052Z,8.54
2022-11-28T18:29:24.951Z,8.50
2022-11-28T18:34:28.027Z,8.37
2022-11-28T18:39:31.291Z,8.36
2022-11-28T18:44:33.630Z,8.33
2022-11-28T18:50:00.364Z,8.35
2022-11-28T18:55:02.914Z,8.33
2022-11-28T19:00:06.384Z,8.24
2022-11-28T19:05:08.231Z,8.32
2022-11-28T19:10:10.101Z,8.35
2022-11-28T19:15:12.193Z,8.34
2022-11-28T19:20:14.017Z,8.25
2022-11-28T19:25:16.156Z,8.26
2022-11-28T19:30:18.010Z,8.28
2022-11-28T19:35:19.847Z,8.25
2022-11-28T19:40:21.864Z,8.23
2022-11-28T19:45:24.804Z,8.13
2022-11-28T19:50:26.416Z,8.26
2022-11-28T19:55:28.126Z,8.26
2022-11-28T20:00:29.766Z,8.23
2022-11-28T20:05:34.947Z,8.15
2022-11-28T20:10:39.190Z,8.26
2022-11-28T20:15:41.870Z,8.32
2022-11-28T20:20:43.477Z,8.31
2022-11-28T20:25:45.219Z,8.41
2022-11-28T20:30:47.570Z,8.46
2022-11-28T20:35:49.415Z,8.41
2022-11-28T20:40:51.057Z,8.44
2022-11-28T20:45:52.975Z,8.37
2022-11-28T20:50:54.657Z,8.26
2022-11-28T20:56:05.254Z,8.28
2022-11-28T21:01:07.294Z,8.30
2022-11-28T21:06:09.692Z,8.29
2022-11-28T21:11:25.600Z,8.18
2022-11-28T21:16:36.909Z,8.12
2022-11-28T21:21:40.126Z,8.18
2022-11-28T21:26:46.644Z,8.09
2022-11-28T21:31:52.311Z,8.06
2022-11-28T21:36:55.095Z,8.09
2022-11-28T21:41:56.747Z,8.00
2022-11-28T21:46:58.415Z,8.08
2022-11-28T21:52:00.193Z,8.04
2022-11-28T21:57:02.007Z,8.19
2022-11-28T22:02:08.553Z,8.13
2022-11-28T22:07:13.545Z,8.21
2022-11-28T22:12:15.205Z,8.18
2022-11-28T22:17:16.929Z,8.16
2022-11-28T22:22:18.699Z,8.15
2022-11-28T22:27:20.650Z,8.20
2022-11-28T22:32:22.425Z,8.18
2022-11-28T22:37:24.099Z,8.31
2022-11-28T22:42:26.175Z,8.37
2022-11-28T22:47:27.893Z,8.44
2022-11-28T22:52:29.527Z,8.43
2022-11-28T22:57:31.556Z,8.41
2022-11-28T23:02:33.224Z,8.40
2022-11-28T23:07:35.028Z,8.30
2022-11-28T23:12:36.754Z,8.33
2022-11-28T23:17:38.438Z,8.32
2022-11-28T23:22:40.043Z,8.29
2022-11-28T23:27:41.866Z,8.28
2022-11-28T23:32:44.656Z,8.32
2022-11-28T23:37:46.330Z,8.32
2022-11-28T23:42:47.999Z,8.32
2022-11-28T23:47:49.677Z,8.21
2022-11-28T23:52:51.373Z,8.23
2022-11-28T23:57:54.221Z,8.19
